Time;durP1;ratioP1;P1;durP2;ratioP2;P2;SDS_P1;SDS_P2;PMS_P1;PMS_P2;Temp;Humidity;BMP_temperature;BMP_pressure;BME280_temperature;BME280_humidity;BME280_pressure;Samples;Min_cycle;Max_cycle;Signal;HPM_P1;HPM_P2
2023/05/19 00:00:13;;;;;;;10.93;7.30;;;;;;;16.10;92.85;100192.50;4876916;29;20068;-86
2023/05/19 00:02:59;;;;;;;13.00;7.88;;;;;;;16.10;92.39;100191.72;4875847;29;20104;-85
2023/05/19 00:05:44;;;;;;;10.50;7.20;;;;;;;16.06;92.49;100201.09;4874772;29;20105;-86
2023/05/19 00:08:32;;;;;;;11.73;7.53;;;;;;;16.05;92.09;100208.19;4872959;29;20522;-87
2023/05/19 00:11:16;;;;;;;10.60;7.03;;;;;;;15.91;92.39;100206.53;4874097;29;20048;-86
2023/05/19 00:14:03;;;;;;;12.57;6.88;;;;;;;15.80;92.50;100214.03;4872673;29;20117;-87
2023/05/19 00:16:47;;;;;;;11.75;7.32;;;;;;;15.91;92.18;100215.31;4872312;29;20052;-85
2023/05/19 00:19:32;;;;;;;11.70;7.03;;;;;;;15.80;92.75;100203.44;4876182;29;20055;-88
2023/05/19 00:22:16;;;;;;;14.98;8.05;;;;;;;15.78;92.61;100197.53;4873315;29;20121;-87
2023/05/19 00:25:00;;;;;;;13.63;8.05;;;;;;;15.79;92.37;100201.81;4875165;29;20044;-86
2023/05/19 00:27:44;;;;;;;10.55;7.05;;;;;;;15.67;92.53;100198.94;4880450;29;20181;-87
2023/05/19 00:30:29;;;;;;;14.40;7.35;;;;;;;15.70;91.86;100203.00;4872607;29;20056;-87
2023/05/19 00:33:12;;;;;;;10.25;7.25;;;;;;;15.83;91.56;100208.34;4876517;29;20068;-86
2023/05/19 00:35:56;;;;;;;10.60;7.30;;;;;;;15.51;92.52;100196.63;4873541;29;20076;-86
2023/05/19 00:38:40;;;;;;;10.20;7.32;;;;;;;15.68;91.69;100202.38;4876849;29;20096;-86
2023/05/19 00:41:25;;;;;;;12.70;7.20;;;;;;;15.52;92.15;100190.34;4869923;29;20093;-87
2023/05/19 00:44:09;;;;;;;9.32;7.32;;;;;;;15.53;92.08;100206.03;4874486;29;20048;-87
2023/05/19 00:46:53;;;;;;;10.88;7.25;;;;;;;15.52;93.35;100212.31;4869923;29;20052;-83
2023/05/19 00:49:37;;;;;;;15.38;7.10;;;;;;;15.47;93.13;100198.84;4870770;29;20064;-86
2023/05/19 00:52:22;;;;;;;13.50;7.38;;;;;;;15.51;92.53;100205.38;4868677;29;20069;-86
2023/05/19 00:55:07;;;;;;;9.07;7.40;;;;;;;15.38;91.01;100202.69;4875526;29;20048;-87
2023/05/19 00:57:52;;;;;;;13.27;7.88;;;;;;;15.52;91.85;100214.16;4873787;29;20048;-85
2023/05/19 01:00:38;;;;;;;12.00;6.68;;;;;;;15.46;91.08;100191.94;4872804;29;20132;-85
2023/05/19 01:03:22;;;;;;;10.98;6.78;;;;;;;15.46;91.01;100215.75;4872129;29;20044;-85
2023/05/19 01:06:06;;;;;;;12.45;7.25;;;;;;;15.61;91.04;100209.50;4869717;29;20063;-86
2023/05/19 01:08:50;;;;;;;8.30;6.50;;;;;;;15.58;91.59;100205.41;4869326;29;20518;-87
2023/05/19 01:11:35;;;;;;;9.65;6.70;;;;;;;15.54;93.00;100206.81;4877887;29;20052;-85
2023/05/19 01:14:20;;;;;;;14.27;7.15;;;;;;;15.46;94.10;100201.72;4873940;29;20141;-86
2023/05/19 01:17:23;;;;;;;14.65;6.88;;;;;;;15.45;94.88;100195.59;4871598;29;20079;-85
2023/05/19 01:20:14;;;;;;;12.73;7.63;;;;;;;15.54;94.75;100202.38;4867563;29;20600;-85
2023/05/19 01:23:28;;;;;;;11.52;7.38;;;;;;;15.46;95.51;100218.41;4870665;29;20165;-85
2023/05/19 01:26:43;;;;;;;12.13;7.35;;;;;;;15.27;96.18;100204.09;4871425;29;20076;-86
2023/05/19 01:29:40;;;;;;;11.02;7.72;;;;;;;15.37;96.51;100214.31;4871431;29;20577;-85
2023/05/19 01:32:26;;;;;;;12.23;7.95;;;;;;;15.39;96.13;100213.06;4869738;29;20121;-85
2023/05/19 01:35:12;;;;;;;11.90;7.97;;;;;;;15.35;96.24;100203.09;4872498;29;20044;-86
2023/05/19 01:37:58;;;;;;;14.77;8.23;;;;;;;15.29;97.20;100204.69;4869529;29;20065;-87
2023/05/19 01:40:45;;;;;;;13.93;8.10;;;;;;;15.39;97.03;100199.84;4874980;29;20052;-84
2023/05/19 01:43:30;;;;;;;11.45;7.32;;;;;;;15.39;97.15;100201.69;4870147;29;20449;-85
2023/05/19 01:46:14;;;;;;;14.60;8.40;;;;;;;15.18;99.27;100199.97;4871542;29;20101;-86
2023/05/19 01:48:59;;;;;;;18.83;9.25;;;;;;;15.01;100.00;100207.41;4873241;29;20548;-86
2023/05/19 01:51:43;;;;;;;15.00;8.48;;;;;;;14.94;100.00;100192.31;4864829;29;20048;-84
2023/05/19 01:54:27;;;;;;;14.90;9.10;;;;;;;15.17;100.00;100204.44;4871182;29;20052;-86
2023/05/19 01:57:42;;;;;;;12.20;7.80;;;;;;;15.09;99.71;100201.94;4870900;29;20083;-86
2023/05/19 02:00:41;;;;;;;14.35;7.55;;;;;;;15.13;100.00;100214.59;4874484;29;20412;-88
2023/05/19 02:03:52;;;;;;;11.48;8.15;;;;;;;15.04;100.00;100209.66;4875822;29;20060;-86
2023/05/19 02:07:03;;;;;;;11.60;7.95;;;;;;;15.03;100.00;100203.53;4867498;29;20064;-85
2023/05/19 02:09:58;;;;;;;12.77;7.70;;;;;;;15.04;100.00;100193.78;4870192;29;20064;-85
2023/05/19 02:12:44;;;;;;;11.38;8.30;;;;;;;14.87;100.00;100178.25;4871053;29;20073;-86
2023/05/19 02:15:37;;;;;;;12.63;7.50;;;;;;;15.02;100.00;100201.09;4868693;29;20579;-85
2023/05/19 02:18:23;;;;;;;11.57;7.50;;;;;;;14.91;100.00;100190.06;4869302;29;20453;-85
2023/05/19 02:21:11;;;;;;;10.23;8.15;;;;;;;14.92;100.00;100196.16;4869513;29;20610;-86
2023/05/19 02:23:55;;;;;;;11.15;7.55;;;;;;;14.92;100.00;100202.25;4867975;29;20060;-85
2023/05/19 02:26:40;;;;;;;9.50;7.80;;;;;;;14.84;100.00;100189.19;4869806;29;20509;-85
2023/05/19 02:29:23;;;;;;;;;;;;;;;14.94;100.00;100194.16;4869132;29;20056;-85
2023/05/19 02:32:07;;;;;;;13.38;8.15;;;;;;;14.76;100.00;100192.00;4870650;29;20011;-84
2023/05/19 02:34:52;;;;;;;9.85;7.13;;;;;;;14.73;100.00;100187.09;4866580;29;20460;-85
2023/05/19 02:37:36;;;;;;;15.02;8.50;;;;;;;14.69;100.00;100190.09;4870704;29;20085;-86
2023/05/19 02:40:20;;;;;;;11.43;8.15;;;;;;;14.80;99.72;100198.53;4869460;29;20209;-86
2023/05/19 02:43:05;;;;;;;11.75;7.78;;;;;;;14.83;98.84;100198.16;4874401;29;20063;-87
2023/05/19 02:45:49;;;;;;;11.73;7.75;;;;;;;14.83;98.49;100198.94;4882411;29;20060;-85
2023/05/19 02:48:33;;;;;;;13.13;7.78;;;;;;;14.84;98.13;100210.34;4873802;29;20064;-85
2023/05/19 02:51:17;;;;;;;13.70;8.13;;;;;;;14.75;98.59;100214.16;4870785;29;20581;-85
2023/05/19 02:54:01;;;;;;;10.02;7.35;;;;;;;14.70;98.57;100202.28;4870946;29;20600;-87
2023/05/19 02:56:45;;;;;;;10.15;7.18;;;;;;;14.64;98.23;100204.88;4874725;29;20083;-86
2023/05/19 02:59:30;;;;;;;14.38;8.10;;;;;;;14.49;99.15;100212.91;4870056;29;20048;-85
2023/05/19 03:02:14;;;;;;;13.38;7.82;;;;;;;14.52;99.43;100220.44;4870889;29;20068;-85
2023/05/19 03:05:00;;;;;;;10.23;8.13;;;;;;;14.51;100.00;100221.47;4872358;29;20064;-87
2023/05/19 03:07:44;;;;;;;13.25;8.13;;;;;;;14.27;100.00;100210.28;4874725;29;20043;-87
2023/05/19 03:10:29;;;;;;;14.38;7.97;;;;;;;14.21;100.00;100211.06;4869069;29;20560;-85
2023/05/19 03:13:13;;;;;;;12.35;7.68;;;;;;;14.20;100.00;100214.72;4870106;29;20125;-87
2023/05/19 03:15:58;;;;;;;9.05;6.93;;;;;;;14.14;100.00;100214.44;4871291;29;20074;-86
2023/05/19 03:18:42;;;;;;;11.88;7.70;;;;;;;14.10;100.00;100202.63;4863817;29;20042;-87
2023/05/19 03:21:26;;;;;;;12.15;7.40;;;;;;;14.08;100.00;100202.00;4872010;29;20052;-87
2023/05/19 03:24:10;;;;;;;10.43;6.88;;;;;;;14.01;99.79;100209.06;4876100;29;20124;-87
2023/05/19 03:26:54;;;;;;;10.05;6.35;;;;;;;14.06;100.00;100208.50;4876426;29;20056;-87
2023/05/19 03:29:39;;;;;;;11.02;6.80;;;;;;;14.07;99.51;100200.38;4875327;29;20420;-87
2023/05/19 03:32:23;;;;;;;9.80;6.55;;;;;;;14.14;99.21;100197.81;4871529;29;20052;-86
2023/05/19 03:35:07;;;;;;;12.90;6.63;;;;;;;14.14;98.99;100197.81;4871636;29;20059;-84
2023/05/19 03:37:51;;;;;;;9.77;6.30;;;;;;;14.07;99.14;100200.38;4871492;29;20053;-85
2023/05/19 03:40:35;;;;;;;11.38;6.00;;;;;;;14.00;99.21;100202.16;4869520;29;20052;-86
2023/05/19 03:43:19;;;;;;;8.70;6.25;;;;;;;13.85;100.00;100181.06;4873909;29;20085;-87
2023/05/19 03:46:04;;;;;;;9.73;5.88;;;;;;;14.07;99.76;100181.09;4875153;29;20047;-88
2023/05/19 03:48:47;;;;;;;8.32;6.05;;;;;;;14.14;99.54;100172.19;4877427;29;20085;-88
2023/05/19 03:51:33;;;;;;;9.40;6.05;;;;;;;14.24;99.29;100173.72;4876249;29;20048;-86
2023/05/19 03:54:17;;;;;;;10.80;6.35;;;;;;;14.23;99.38;100174.72;4877107;29;20047;-86
2023/05/19 03:57:02;;;;;;;8.80;5.75;;;;;;;14.21;99.09;100160.91;4872560;29;20085;-86
2023/05/19 03:59:46;;;;;;;6.78;5.75;;;;;;;14.17;99.03;100147.25;4879569;29;20480;-87
2023/05/19 04:02:30;;;;;;;9.38;6.25;;;;;;;14.18;99.74;100161.28;4869841;29;20579;-85
2023/05/19 04:05:14;;;;;;;8.13;5.93;;;;;;;14.12;100.00;100158.38;4875105;29;20089;-86
2023/05/19 04:07:59;;;;;;;10.75;6.05;;;;;;;14.21;100.00;100159.06;4871609;29;20043;-87
2023/05/19 04:10:43;;;;;;;9.18;6.55;;;;;;;14.30;100.00;100162.38;4873953;29;20043;-85
2023/05/19 04:13:27;;;;;;;8.85;6.05;;;;;;;14.34;99.81;100157.53;4871325;29;20091;-86
2023/05/19 04:16:11;;;;;;;7.88;5.90;;;;;;;14.20;100.00;100162.69;4872068;29;20052;-86
2023/05/19 04:18:55;;;;;;;9.18;5.80;;;;;;;14.03;100.00;100166.63;4875734;29;20048;-85
2023/05/19 04:21:39;;;;;;;12.63;6.57;;;;;;;14.06;100.00;100164.41;4874305;29;20081;-85
2023/05/19 04:24:24;;;;;;;11.23;7.10;;;;;;;14.29;100.00;100168.66;4869729;29;20051;-85
2023/05/19 04:27:10;;;;;;;11.95;5.90;;;;;;;14.30;100.00;100172.13;4870854;29;20531;-85
2023/05/19 04:29:55;;;;;;;11.07;6.28;;;;;;;14.04;100.00;100155.03;4871835;29;20082;-84
2023/05/19 04:32:40;;;;;;;13.23;6.15;;;;;;;14.13;100.00;100173.19;4873404;29;20069;-84
2023/05/19 04:35:24;;;;;;;8.70;6.40;;;;;;;14.18;100.00;100167.34;4868957;29;20097;-88
2023/05/19 04:38:10;;;;;;;13.13;6.38;;;;;;;14.47;100.00;100175.31;4874619;29;21021;-87
2023/05/19 04:40:55;;;;;;;9.95;6.50;;;;;;;14.45;100.00;100169.41;4875703;29;20052;-86
2023/05/19 04:43:40;;;;;;;9.88;6.30;;;;;;;14.36;99.69;100182.75;4881233;29;20515;-88
2023/05/19 04:46:25;;;;;;;9.65;6.18;;;;;;;14.50;99.76;100181.03;4874053;29;20052;-88
2023/05/19 04:49:13;;;;;;;10.30;6.43;;;;;;;14.40;99.62;100189.28;4873415;29;20052;-87
2023/05/19 04:51:57;;;;;;;15.63;7.03;;;;;;;14.40;99.16;100173.44;4870494;29;20124;-88
2023/05/19 04:54:41;;;;;;;9.90;6.45;;;;;;;14.61;98.87;100182.31;4876912;29;20144;-86
2023/05/19 04:57:25;;;;;;;11.65;6.05;;;;;;;14.71;98.22;100185.47;4869492;29;20089;-87
2023/05/19 05:00:12;;;;;;;11.07;6.32;;;;;;;14.73;98.04;100182.63;4867627;29;20565;-82
2023/05/19 05:02:57;;;;;;;13.80;6.82;;;;;;;14.66;98.19;100182.56;4867210;29;20431;-84
2023/05/19 05:05:41;;;;;;;8.05;5.95;;;;;;;14.79;98.12;100189.78;4870994;29;20132;-83
2023/05/19 05:08:26;;;;;;;12.02;6.80;;;;;;;14.74;98.26;100180.78;4869782;29;20060;-83
2023/05/19 05:11:10;;;;;;;13.48;6.20;;;;;;;14.98;97.54;100198.84;4885454;29;20416;-83
2023/05/19 05:13:56;;;;;;;9.25;6.07;;;;;;;14.92;97.23;100189.03;4867855;29;20071;-82
2023/05/19 05:16:42;;;;;;;10.38;5.95;;;;;;;15.06;97.16;100197.06;4871804;29;20112;-83
2023/05/19 05:19:26;;;;;;;12.43;6.20;;;;;;;15.20;96.53;100193.47;4867477;29;20444;-83
2023/05/19 05:22:10;;;;;;;9.93;6.30;;;;;;;15.32;96.03;100190.25;4865265;29;20045;-84
2023/05/19 05:24:55;;;;;;;8.30;5.93;;;;;;;15.42;95.91;100202.09;4870804;29;20108;-83
2023/05/19 05:27:39;;;;;;;13.48;5.70;;;;;;;15.43;95.79;100208.22;4872526;29;20106;-83
2023/05/19 05:30:24;;;;;;;7.97;5.25;;;;;;;15.46;95.25;100186.66;4867141;29;20068;-83
2023/05/19 05:33:08;;;;;;;6.35;5.05;;;;;;;15.55;94.97;100205.81;4868657;29;20129;-83
2023/05/19 05:35:52;;;;;;;10.80;5.07;;;;;;;15.50;95.46;100197.66;4868420;29;20124;-81
2023/05/19 05:38:36;;;;;;;10.70;5.68;;;;;;;15.59;94.81;100200.94;4869853;29;20049;-81
2023/05/19 05:41:21;;;;;;;9.40;5.75;;;;;;;15.75;94.54;100200.59;4866783;29;20048;-81
2023/05/19 05:44:05;;;;;;;8.20;5.20;;;;;;;15.85;94.32;100201.00;4871967;29;20109;-83
2023/05/19 05:46:49;;;;;;;8.80;5.60;;;;;;;16.01;93.85;100199.03;4864681;29;20105;-82
2023/05/19 05:49:36;;;;;;;7.22;5.03;;;;;;;16.12;93.71;100190.50;4873514;29;20132;-82
2023/05/19 05:52:23;;;;;;;10.30;5.90;;;;;;;16.09;93.33;100198.81;4870062;29;20515;-82
2023/05/19 05:55:08;;;;;;;9.32;5.65;;;;;;;16.09;93.61;100205.97;4861929;29;20222;-82
2023/05/19 05:57:53;;;;;;;9.18;5.40;;;;;;;16.02;95.32;100208.59;4862752;29;20075;-82
2023/05/19 06:00:37;;;;;;;9.57;5.35;;;;;;;16.44;94.09;100194.34;4867328;29;20111;-83
2023/05/19 06:03:23;;;;;;;11.65;5.60;;;;;;;16.73;93.15;100206.34;4865423;29;20056;-83
2023/05/19 06:06:07;;;;;;;8.75;5.05;;;;;;;16.78;92.93;100203.88;4865754;29;20571;-82
2023/05/19 06:08:51;;;;;;;9.98;5.25;;;;;;;17.03;93.50;100205.09;4865273;29;20120;-83
2023/05/19 06:11:35;;;;;;;10.73;5.85;;;;;;;17.26;93.34;100209.94;4865804;29;20580;-83
2023/05/19 06:14:19;;;;;;;9.55;5.40;;;;;;;17.36;92.01;100210.28;4866674;29;20048;-83
2023/05/19 06:17:03;;;;;;;11.00;4.85;;;;;;;17.60;90.97;100210.63;4870279;29;20093;-84
2023/05/19 06:19:47;;;;;;;7.80;4.53;;;;;;;17.55;90.89;100208.59;4868858;29;20048;-84
2023/05/19 06:22:31;;;;;;;6.22;4.63;;;;;;;17.63;90.19;100193.44;4864351;29;20067;-83
2023/05/19 06:25:15;;;;;;;7.82;4.80;;;;;;;17.56;91.19;100204.06;4871094;29;20432;-81
2023/05/19 06:28:00;;;;;;;7.18;4.93;;;;;;;17.62;90.78;100202.41;4871949;29;20048;-85
2023/05/19 06:30:44;;;;;;;8.20;4.70;;;;;;;17.85;90.70;100200.03;4867944;29;20098;-84
2023/05/19 06:33:28;;;;;;;11.73;5.13;;;;;;;17.99;90.26;100215.88;4872736;29;20559;-85
2023/05/19 06:36:12;;;;;;;7.53;4.43;;;;;;;17.86;90.36;100208.81;4870622;29;20268;-86
2023/05/19 06:38:56;;;;;;;12.00;4.93;;;;;;;17.74;91.15;100210.53;4867345;29;20463;-86
2023/05/19 06:41:41;;;;;;;8.05;5.18;;;;;;;17.60;90.62;100204.47;4874136;29;20085;-86
2023/05/19 06:44:25;;;;;;;7.90;4.70;;;;;;;17.49;91.57;100201.47;4871117;29;20048;-83
2023/05/19 06:47:09;;;;;;;7.15;4.60;;;;;;;17.61;91.19;100211.41;4868415;29;20094;-81
2023/05/19 06:49:54;;;;;;;8.52;4.63;;;;;;;17.92;90.03;100201.84;4867906;29;20053;-84
2023/05/19 06:52:38;;;;;;;7.90;4.30;;;;;;;18.37;90.59;100215.03;4871185;29;20056;-85
2023/05/19 06:55:22;;;;;;;7.68;4.80;;;;;;;18.80;87.88;100201.97;4866785;29;20098;-86
2023/05/19 06:58:06;;;;;;;8.07;4.78;;;;;;;18.77;87.57;100191.75;4881346;29;20074;-82
2023/05/19 07:00:50;;;;;;;8.35;4.13;;;;;;;18.90;87.36;100201.44;4867444;29;20572;-83
2023/05/19 07:03:34;;;;;;;7.28;4.28;;;;;;;18.40;87.82;100197.84;4871747;29;20056;-83
2023/05/19 07:06:18;;;;;;;8.70;4.18;;;;;;;18.56;87.76;100191.16;4877647;29;20055;-85
2023/05/19 07:09:04;;;;;;;10.40;4.93;;;;;;;18.45;87.96;100190.03;4873512;29;20076;-85
2023/05/19 07:11:48;;;;;;;5.72;4.38;;;;;;;18.69;87.86;100196.34;4873299;29;20053;-84
2023/05/19 07:14:32;;;;;;;10.68;5.30;;;;;;;18.40;88.04;100198.63;4878538;29;20043;-84
2023/05/19 07:17:16;;;;;;;9.00;5.13;;;;;;;18.20;89.15;100204.13;4871415;29;20523;-85
2023/05/19 07:20:00;;;;;;;9.63;4.78;;;;;;;18.16;89.72;100204.78;4876592;29;20052;-84
2023/05/19 07:22:44;;;;;;;9.90;5.00;;;;;;;17.92;90.87;100201.84;4873409;29;20107;-86
2023/05/19 07:25:29;;;;;;;8.52;4.50;;;;;;;17.80;91.53;100210.50;4875001;29;20048;-82
2023/05/19 07:28:13;;;;;;;9.45;4.90;;;;;;;18.05;92.04;100217.72;4873508;29;20073;-82
2023/05/19 07:30:57;;;;;;;9.00;5.97;;;;;;;17.68;92.98;100223.63;4866765;29;20096;-79
2023/05/19 07:33:41;;;;;;;11.95;5.40;;;;;;;18.19;93.12;100221.09;4871435;29;20137;-83
2023/05/19 07:36:25;;;;;;;9.65;5.05;;;;;;;18.08;93.04;100216.47;4870541;29;20137;-80
2023/05/19 07:39:09;;;;;;;7.05;5.03;;;;;;;18.32;92.91;100230.81;4873398;29;20089;-81
2023/05/19 07:41:54;;;;;;;14.50;4.95;;;;;;;18.07;93.99;100231.59;4869072;29;20429;-81
2023/05/19 07:44:38;;;;;;;7.05;5.25;;;;;;;17.80;95.84;100229.06;4867938;29;20189;-80
2023/05/19 07:47:22;;;;;;;6.35;4.72;;;;;;;18.08;95.05;100222.63;4870548;29;20384;-80
2023/05/19 07:50:06;;;;;;;9.00;4.97;;;;;;;17.96;95.85;100234.91;4876365;29;20047;-79
2023/05/19 07:52:50;;;;;;;8.00;5.20;;;;;;;18.25;100.00;100232.69;4872697;29;20072;-80
2023/05/19 07:55:35;;;;;;;11.80;5.60;;;;;;;17.66;100.00;100224.84;4868409;29;20132;-80
2023/05/19 07:58:19;;;;;;;7.35;5.25;;;;;;;17.78;100.00;100227.66;4869177;29;20517;-78
2023/05/19 08:01:03;;;;;;;6.72;4.70;;;;;;;18.00;100.00;100225.47;4869111;29;20104;-78
2023/05/19 08:03:47;;;;;;;7.78;4.80;;;;;;;17.77;100.00;100236.66;4872764;29;20092;-79
2023/05/19 08:06:31;;;;;;;7.50;5.07;;;;;;;17.44;100.00;100240.28;4875870;29;20518;-79
2023/05/19 08:09:16;;;;;;;7.93;4.72;;;;;;;17.94;100.00;100236.97;4871035;29;20045;-78
2023/05/19 08:12:00;;;;;;;7.25;5.28;;;;;;;17.94;100.00;100243.09;4871697;29;20064;-77
2023/05/19 08:14:45;;;;;;;7.57;4.88;;;;;;;18.27;100.00;100251.91;4867845;29;21332;-78
2023/05/19 08:17:29;;;;;;;8.18;5.05;;;;;;;18.30;100.00;100238.19;4876301;29;20073;-78
2023/05/19 08:20:13;;;;;;;8.82;5.85;;;;;;;17.79;100.00;100243.38;4868201;29;20069;-80
2023/05/19 08:22:57;;;;;;;7.43;5.22;;;;;;;17.82;100.00;100237.66;4871972;29;20096;-79
2023/05/19 08:25:42;;;;;;;10.43;5.50;;;;;;;17.74;100.00;100232.59;4869067;29;20047;-79
2023/05/19 08:28:26;;;;;;;9.15;6.05;;;;;;;17.58;100.00;100246.34;4868304;29;20061;-79
2023/05/19 08:31:10;;;;;;;9.82;5.90;;;;;;;17.66;100.00;100236.31;4875561;29;20051;-79
2023/05/19 08:33:53;;;;;;;9.35;5.78;;;;;;;17.40;100.00;100238.06;4869109;29;20526;-79
2023/05/19 08:36:39;;;;;;;7.20;5.78;;;;;;;17.99;100.00;100239.78;4860993;29;20452;-79
2023/05/19 08:39:25;;;;;;;8.15;5.80;;;;;;;18.89;100.00;100240.56;4869650;29;20048;-81
2023/05/19 08:42:11;;;;;;;8.98;5.53;;;;;;;18.02;100.00;100218.16;4866637;29;20125;-79
2023/05/19 08:44:55;;;;;;;8.35;5.93;;;;;;;17.81;100.00;100248.50;4863832;29;20053;-79
2023/05/19 08:47:45;;;;;;;10.02;6.47;;;;;;;17.69;100.00;100251.00;4867526;29;20093;-79
2023/05/19 08:50:35;;;;;;;7.55;6.70;;;;;;;17.71;100.00;100243.63;4873719;29;20048;-79
2023/05/19 08:53:21;;;;;;;10.55;6.65;;;;;;;17.84;100.00;100254.19;4867663;29;20049;-80
2023/05/19 08:56:17;;;;;;;13.95;7.47;;;;;;;17.16;100.00;100252.81;4874319;29;20133;-79
2023/05/19 08:59:02;;;;;;;13.88;7.22;;;;;;;16.68;100.00;100251.22;4870418;29;20060;-79
2023/05/19 09:01:48;;;;;;;8.35;6.75;;;;;;;16.60;100.00;100262.84;4869473;29;20061;-80
2023/05/19 09:04:32;;;;;;;10.85;7.25;;;;;;;16.08;100.00;100236.91;4873432;29;20123;-80
2023/05/19 09:07:17;;;;;;;10.60;6.55;;;;;;;16.51;100.00;100253.50;4871191;29;20052;-81
2023/05/19 09:10:03;;;;;;;8.75;6.60;;;;;;;16.17;100.00;100260.59;4865155;29;20547;-85
2023/05/19 09:12:48;;;;;;;12.30;7.30;;;;;;;16.74;100.00;100239.00;4871204;29;20052;-84
2023/05/19 09:15:35;;;;;;;11.80;6.78;;;;;;;16.60;100.00;100238.16;4862542;29;20053;-84
2023/05/19 09:18:19;;;;;;;12.68;6.80;;;;;;;16.82;100.00;100236.94;4862742;29;20052;-84
2023/05/19 09:21:06;;;;;;;12.82;6.47;;;;;;;16.76;100.00;100255.50;4861251;29;20049;-84
2023/05/19 09:23:50;;;;;;;10.95;7.10;;;;;;;16.83;100.00;100266.91;4862726;29;20064;-84
2023/05/19 09:26:41;;;;;;;11.93;6.75;;;;;;;19.73;100.00;100273.00;4862495;29;20056;-82
2023/05/19 09:29:25;;;;;;;9.73;7.15;;;;;;;20.11;100.00;100259.41;4861832;29;20091;-84
2023/05/19 09:32:09;;;;;;;10.90;7.43;;;;;;;20.25;100.00;100261.88;4862681;29;20043;-84
2023/05/19 09:34:54;;;;;;;9.38;7.15;;;;;;;19.06;100.00;100259.44;4862295;29;20102;-82
2023/05/19 09:37:42;;;;;;;11.57;7.38;;;;;;;19.07;100.00;100246.97;4863041;29;20057;-85
2023/05/19 09:40:29;;;;;;;11.98;7.75;;;;;;;19.40;100.00;100259.88;4863008;29;20049;-83
2023/05/19 09:43:13;;;;;;;9.90;7.38;;;;;;;20.14;100.00;100259.97;4863015;29;20503;-85
2023/05/19 09:46:10;;;;;;;11.55;7.38;;;;;;;20.09;100.00;100240.16;4863598;29;20057;-84
2023/05/19 09:48:57;;;;;;;11.95;6.78;;;;;;;20.20;100.00;100253.72;4863064;29;20136;-84
2023/05/19 09:51:42;;;;;;;12.20;6.75;;;;;;;20.88;100.00;100261.47;4862464;29;20120;-83
2023/05/19 09:54:30;;;;;;;9.55;6.45;;;;;;;20.66;100.00;100254.84;4862447;29;20088;-85
2023/05/19 09:57:17;;;;;;;12.15;6.70;;;;;;;21.18;96.98;100266.66;4863131;29;20105;-85
2023/05/19 10:00:10;;;;;;;11.32;6.75;;;;;;;21.73;95.29;100251.19;4862117;29;20404;-86
2023/05/19 10:02:56;;;;;;;9.50;6.45;;;;;;;22.26;92.91;100269.75;4863838;29;20056;-85
2023/05/19 10:05:41;;;;;;;8.70;5.82;;;;;;;23.07;88.54;100267.75;4863731;29;20049;-85
2023/05/19 10:08:28;;;;;;;11.60;5.70;;;;;;;23.10;86.88;100261.91;4861597;29;20093;-85
2023/05/19 10:11:14;;;;;;;13.00;6.25;;;;;;;23.08;83.57;100251.44;4862498;29;20047;-85
2023/05/19 10:13:58;;;;;;;11.30;5.97;;;;;;;22.81;83.30;100254.03;4862511;29;20052;-86
2023/05/19 10:16:44;;;;;;;9.73;5.95;;;;;;;23.83;81.30;100242.13;4862121;29;20098;-85
2023/05/19 10:19:31;;;;;;;11.38;6.25;;;;;;;23.14;81.69;100255.00;4861460;29;20100;-85
2023/05/19 10:22:15;;;;;;;8.23;6.07;;;;;;;22.24;83.54;100263.84;4862116;29;20053;-84
2023/05/19 10:24:59;;;;;;;12.23;6.93;;;;;;;23.61;80.90;100258.25;4862613;29;20055;-86
2023/05/19 10:27:50;;;;;;;13.35;6.70;;;;;;;24.26;80.44;100250.31;4860787;29;20226;-85
2023/05/19 10:30:39;;;;;;;9.48;7.40;;;;;;;23.39;78.99;100254.53;4860745;29;20113;-86
2023/05/19 10:33:40;;;;;;;11.48;7.28;;;;;;;22.36;81.19;100247.72;4866732;29;20577;-85
2023/05/19 10:36:44;;;;;;;9.07;7.07;;;;;;;23.06;79.05;100245.53;4866433;29;20140;-86
2023/05/19 10:39:34;;;;;;;14.67;8.70;;;;;;;22.87;80.28;100231.63;4866340;29;20056;-87
2023/05/19 10:42:43;;;;;;;10.30;7.00;;;;;;;23.41;80.18;100230.19;4865909;29;20049;-85
2023/05/19 10:45:30;;;;;;;13.07;8.15;;;;;;;22.34;81.20;100234.56;4866211;29;20048;-86
2023/05/19 10:48:15;;;;;;;11.48;8.27;;;;;;;22.74;81.18;100237.31;4870497;29;20049;-85
2023/05/19 10:51:00;;;;;;;12.93;7.70;;;;;;;23.16;80.86;100241.38;4870540;29;20512;-84
2023/05/19 10:53:48;;;;;;;12.18;8.60;;;;;;;23.88;79.38;100254.75;4868387;29;20483;-85
2023/05/19 10:56:34;;;;;;;11.15;8.27;;;;;;;24.09;77.63;100239.72;4872475;29;20506;-82
2023/05/19 10:59:36;;;;;;;9.05;7.97;;;;;;;25.04;78.00;100235.50;4865477;29;20174;-82
2023/05/19 11:02:40;;;;;;;10.15;8.63;;;;;;;24.84;73.98;100238.91;4880885;29;20048;-82
2023/05/19 11:05:27;;;;;;;;;;;;;;;25.94;73.18;100235.47;4872030;29;20578;-81
2023/05/19 11:08:12;;;;;;;14.88;8.50;;;;;;;25.93;72.81;100236.56;4872157;29;20004;-84
2023/05/19 11:11:10;;;;;;;10.77;7.90;;;;;;;24.88;73.79;100241.88;4867698;29;20104;-84
2023/05/19 11:13:55;;;;;;;10.57;8.40;;;;;;;25.65;71.43;100234.13;4871683;29;20055;-83
2023/05/19 11:16:44;;;;;;;11.68;8.73;;;;;;;24.61;72.34;100235.53;4869547;29;20048;-82
2023/05/19 11:19:30;;;;;;;11.65;7.63;;;;;;;24.05;74.02;100233.22;4869347;29;20060;-83
2023/05/19 11:22:14;;;;;;;10.68;8.38;;;;;;;24.79;71.92;100236.19;4866406;29;20101;-83
2023/05/19 11:24:59;;;;;;;11.85;7.68;;;;;;;24.79;71.05;100244.25;4869657;29;20126;-83
2023/05/19 11:27:45;;;;;;;13.95;8.40;;;;;;;25.56;67.79;100241.06;4872710;29;20074;-83
2023/05/19 11:30:29;;;;;;;11.93;8.10;;;;;;;26.47;66.73;100239.78;4868484;29;20059;-83
2023/05/19 11:33:18;;;;;;;12.07;8.27;;;;;;;24.97;68.04;100253.72;4870093;29;20087;-83
2023/05/19 11:36:03;;;;;;;11.85;7.88;;;;;;;25.69;66.80;100239.75;4872114;29;20567;-83
2023/05/19 11:38:48;;;;;;;9.05;6.95;;;;;;;26.28;66.00;100242.25;4873674;29;20100;-84
2023/05/19 11:41:38;;;;;;;9.68;6.75;;;;;;;26.63;62.84;100232.50;4873476;29;20128;-83
2023/05/19 11:44:22;;;;;;;10.82;6.13;;;;;;;26.04;63.17;100243.56;4872442;29;20092;-83
2023/05/19 11:47:07;;;;;;;14.82;7.30;;;;;;;26.64;61.68;100234.91;4871045;29;20052;-84
2023/05/19 11:49:53;;;;;;;14.32;8.80;;;;;;;26.98;63.89;100232.69;4868723;29;20399;-83
2023/05/19 11:52:43;;;;;;;13.13;8.35;;;;;;;26.57;64.22;100228.19;4872299;29;20091;-83
2023/05/19 11:55:27;;;;;;;9.98;7.97;;;;;;;26.74;61.89;100233.28;4872349;29;20048;-82
2023/05/19 11:58:11;;;;;;;11.95;7.85;;;;;;;25.98;62.57;100223.13;4872071;29;20069;-82
2023/05/19 12:00:56;;;;;;;13.23;7.93;;;;;;;25.06;64.51;100225.31;4871683;29;20240;-82
2023/05/19 12:03:40;;;;;;;12.55;7.40;;;;;;;25.26;65.26;100239.06;4872766;29;20570;-82
2023/05/19 12:06:25;;;;;;;12.77;7.38;;;;;;;24.22;63.94;100230.44;4869707;29;20085;-82
2023/05/19 12:09:10;;;;;;;10.48;7.07;;;;;;;23.16;66.48;100250.19;4869350;29;20052;-83
2023/05/19 12:11:54;;;;;;;11.07;7.35;;;;;;;23.25;66.36;100248.75;4871281;29;20419;-82
2023/05/19 12:14:38;;;;;;;12.85;7.93;;;;;;;22.54;67.20;100238.66;4870983;29;20085;-84
2023/05/19 12:17:24;;;;;;;12.93;7.55;;;;;;;23.51;67.19;100246.34;4870310;29;20399;-83
2023/05/19 12:20:10;;;;;;;12.55;7.50;;;;;;;23.04;67.58;100252.19;4868006;29;20060;-83
2023/05/19 12:22:55;;;;;;;14.25;8.10;;;;;;;23.65;67.75;100254.00;4869146;29;20103;-83
2023/05/19 12:25:39;;;;;;;9.82;7.22;;;;;;;24.15;68.89;100248.59;4867097;29;20125;-82
2023/05/19 12:28:23;;;;;;;12.48;8.50;;;;;;;23.70;68.69;100237.97;4874225;29;20051;-82
2023/05/19 12:31:07;;;;;;;13.80;9.05;;;;;;;24.12;68.11;100235.69;4864861;29;20078;-82
2023/05/19 12:33:51;;;;;;;15.18;9.57;;;;;;;24.24;68.41;100231.75;4869939;29;20392;-82
2023/05/19 12:36:36;;;;;;;14.35;9.43;;;;;;;24.35;67.79;100221.91;4869733;29;20053;-82
2023/05/19 12:39:20;;;;;;;15.93;9.48;;;;;;;24.26;68.80;100239.56;4870584;29;20037;-82
2023/05/19 12:42:09;;;;;;;13.35;9.40;;;;;;;23.87;67.85;100247.78;4874444;29;20096;-82
2023/05/19 12:44:53;;;;;;;11.90;9.60;;;;;;;24.58;67.51;100237.91;4870316;29;20044;-82